sensor_id;sensor_type;location;lat;lon;timestamp;pressure;altitude;pressure_sealevel;temperature;humidity
74631;BME280;63138;55.082;38.804;2022-09-27T00:00:34;99588.03;;;3.31;97.51
74631;BME280;63138;55.082;38.804;2022-09-27T00:03:00;99589.47;;;3.35;97.63
74631;BME280;63138;55.082;38.804;2022-09-27T00:05:26;99582.00;;;3.39;97.74
74631;BME280;63138;55.082;38.804;2022-09-27T00:07:52;99583.00;;;3.48;97.43
74631;BME280;63138;55.082;38.804;2022-09-27T00:10:17;99587.22;;;3.50;98.09
74631;BME280;63138;55.082;38.804;2022-09-27T00:12:44;99583.69;;;3.50;98.20
74631;BME280;63138;55.082;38.804;2022-09-27T00:15:10;99579.56;;;3.45;98.08
74631;BME280;63138;55.082;38.804;2022-09-27T00:17:37;99581.41;;;3.45;98.09
74631;BME280;63138;55.082;38.804;2022-09-27T00:20:06;99584.09;;;3.45;97.79
74631;BME280;63138;55.082;38.804;2022-09-27T00:22:32;99584.94;;;3.45;97.34
74631;BME280;63138;55.082;38.804;2022-09-27T00:25:01;99572.53;;;3.44;97.85
74631;BME280;63138;55.082;38.804;2022-09-27T00:27:30;99581.03;;;3.50;97.65
74631;BME280;63138;55.082;38.804;2022-09-27T00:29:56;99581.56;;;3.43;97.48
74631;BME280;63138;55.082;38.804;2022-09-27T00:32:21;99587.91;;;3.33;97.36
74631;BME280;63138;55.082;38.804;2022-09-27T00:34:50;99592.25;;;3.24;97.32
74631;BME280;63138;55.082;38.804;2022-09-27T00:37:15;99590.00;;;3.19;97.00
74631;BME280;63138;55.082;38.804;2022-09-27T00:39:41;99590.84;;;3.20;97.17
74631;BME280;63138;55.082;38.804;2022-09-27T00:42:11;99579.97;;;3.21;97.55
74631;BME280;63138;55.082;38.804;2022-09-27T00:52:20;99587.19;;;3.21;97.80
74631;BME280;63138;55.082;38.804;2022-09-27T00:54:54;99585.91;;;3.15;97.70
74631;BME280;63138;55.082;38.804;2022-09-27T00:57:22;99598.19;;;3.18;97.87
74631;BME280;63138;55.082;38.804;2022-09-27T00:59:51;99593.38;;;3.12;97.94
74631;BME280;63138;55.082;38.804;2022-09-27T01:02:19;99601.69;;;3.09;97.95
74631;BME280;63138;55.082;38.804;2022-09-27T01:04:45;99594.06;;;3.04;97.91
74631;BME280;63138;55.082;38.804;2022-09-27T01:07:12;99593.47;;;3.00;97.95
74631;BME280;63138;55.082;38.804;2022-09-27T01:09:39;99592.78;;;2.98;97.53
74631;BME280;63138;55.082;38.804;2022-09-27T01:15:16;99595.00;;;2.93;97.35
74631;BME280;63138;55.082;38.804;2022-09-27T01:18:12;99592.03;;;2.86;97.23
74631;BME280;63138;55.082;38.804;2022-09-27T01:26:28;99591.53;;;2.72;96.92
74631;BME280;63138;55.082;38.804;2022-09-27T01:29:29;99599.00;;;2.68;96.87
74631;BME280;63138;55.082;38.804;2022-09-27T01:34:48;99608.72;;;2.59;97.25
74631;BME280;63138;55.082;38.804;2022-09-27T01:40:12;99599.22;;;2.55;96.86
74631;BME280;63138;55.082;38.804;2022-09-27T01:43:12;99607.28;;;2.55;97.02
74631;BME280;63138;55.082;38.804;2022-09-27T01:45:55;99601.19;;;2.53;96.99
74631;BME280;63138;55.082;38.804;2022-09-27T01:48:46;99603.31;;;2.49;96.96
74631;BME280;63138;55.082;38.804;2022-09-27T01:53:52;99594.81;;;2.44;97.43
74631;BME280;63138;55.082;38.804;2022-09-27T01:56:51;99602.59;;;2.47;97.51
74631;BME280;63138;55.082;38.804;2022-09-27T01:59:40;99601.75;;;2.47;96.98
74631;BME280;63138;55.082;38.804;2022-09-27T02:02:51;99604.44;;;2.47;97.44
74631;BME280;63138;55.082;38.804;2022-09-27T02:05:35;99600.03;;;2.46;97.33
74631;BME280;63138;55.082;38.804;2022-09-27T02:08:24;99600.75;;;2.48;97.25
74631;BME280;63138;55.082;38.804;2022-09-27T02:10:56;99600.88;;;2.46;97.55
74631;BME280;63138;55.082;38.804;2022-09-27T02:13:57;99599.19;;;2.45;97.44
74631;BME280;63138;55.082;38.804;2022-09-27T02:16:58;99605.41;;;2.46;97.35
74631;BME280;63138;55.082;38.804;2022-09-27T02:22:34;99610.41;;;2.60;97.94
74631;BME280;63138;55.082;38.804;2022-09-27T02:30:43;99593.25;;;2.42;98.31
74631;BME280;63138;55.082;38.804;2022-09-27T02:33:25;99596.38;;;2.47;98.12
74631;BME280;63138;55.082;38.804;2022-09-27T02:35:52;99599.34;;;2.54;98.41
74631;BME280;63138;55.082;38.804;2022-09-27T02:38:19;99590.03;;;2.48;99.16
74631;BME280;63138;55.082;38.804;2022-09-27T02:40:46;99585.38;;;2.50;98.87
74631;BME280;63138;55.082;38.804;2022-09-27T02:43:13;99587.09;;;2.51;99.15
74631;BME280;63138;55.082;38.804;2022-09-27T02:48:38;99582.50;;;2.63;98.96
74631;BME280;63138;55.082;38.804;2022-09-27T02:51:37;99603.13;;;2.72;99.71
74631;BME280;63138;55.082;38.804;2022-09-27T03:02:58;99590.81;;;2.39;99.51
74631;BME280;63138;55.082;38.804;2022-09-27T03:05:37;99591.88;;;2.47;99.05
74631;BME280;63138;55.082;38.804;2022-09-27T03:08:06;99596.25;;;2.48;99.15
74631;BME280;63138;55.082;38.804;2022-09-27T03:10:32;99599.69;;;2.60;99.36
74631;BME280;63138;55.082;38.804;2022-09-27T03:12:57;99601.03;;;2.76;99.61
74631;BME280;63138;55.082;38.804;2022-09-27T03:15:23;99595.34;;;2.69;99.56
74631;BME280;63138;55.082;38.804;2022-09-27T03:18:12;99602.19;;;2.83;99.53
74631;BME280;63138;55.082;38.804;2022-09-27T03:20:40;99594.75;;;2.96;100.00
74631;BME280;63138;55.082;38.804;2022-09-27T03:23:11;99600.81;;;2.98;99.96
74631;BME280;63138;55.082;38.804;2022-09-27T03:25:37;99604.81;;;3.14;100.00
74631;BME280;63138;55.082;38.804;2022-09-27T03:28:03;99611.59;;;3.18;100.00
74631;BME280;63138;55.082;38.804;2022-09-27T03:30:29;99612.00;;;3.03;100.00
74631;BME280;63138;55.082;38.804;2022-09-27T03:32:55;99613.78;;;2.93;100.00
74631;BME280;63138;55.082;38.804;2022-09-27T03:35:45;99617.47;;;2.92;99.74
74631;BME280;63138;55.082;38.804;2022-09-27T03:38:12;99617.91;;;2.97;99.23
74631;BME280;63138;55.082;38.804;2022-09-27T03:40:38;99613.66;;;2.95;99.31
74631;BME280;63138;55.082;38.804;2022-09-27T03:43:05;99615.03;;;2.89;99.51
74631;BME280;63138;55.082;38.804;2022-09-27T03:45:32;99619.69;;;2.87;98.79
74631;BME280;63138;55.082;38.804;2022-09-27T03:48:01;99610.66;;;2.88;98.98
74631;BME280;63138;55.082;38.804;2022-09-27T03:50:27;99614.28;;;2.77;98.84
74631;BME280;63138;55.082;38.804;2022-09-27T03:52:53;99620.31;;;2.70;98.47
74631;BME280;63138;55.082;38.804;2022-09-27T03:55:20;99621.63;;;2.75;98.06
74631;BME280;63138;55.082;38.804;2022-09-27T03:57:46;99624.03;;;2.78;98.28
74631;BME280;63138;55.082;38.804;2022-09-27T04:00:14;99622.06;;;2.80;98.16
74631;BME280;63138;55.082;38.804;2022-09-27T04:02:41;99620.06;;;2.73;98.32
74631;BME280;63138;55.082;38.804;2022-09-27T04:05:27;99614.97;;;2.70;98.15
74631;BME280;63138;55.082;38.804;2022-09-27T04:08:03;99621.31;;;2.68;97.50
74631;BME280;63138;55.082;38.804;2022-09-27T04:10:31;99626.94;;;2.65;97.01
74631;BME280;63138;55.082;38.804;2022-09-27T04:12:57;99628.94;;;2.73;97.01
74631;BME280;63138;55.082;38.804;2022-09-27T04:15:25;99621.03;;;2.72;96.72
74631;BME280;63138;55.082;38.804;2022-09-27T04:18:11;99627.41;;;2.71;96.98
74631;BME280;63138;55.082;38.804;2022-09-27T04:21:00;99620.91;;;2.73;97.28
74631;BME280;63138;55.082;38.804;2022-09-27T04:23:27;99621.47;;;2.77;97.17
74631;BME280;63138;55.082;38.804;2022-09-27T04:25:53;99625.00;;;2.77;97.01
74631;BME280;63138;55.082;38.804;2022-09-27T04:28:41;99630.94;;;2.81;96.74
74631;BME280;63138;55.082;38.804;2022-09-27T04:31:07;99618.41;;;2.81;96.21
74631;BME280;63138;55.082;38.804;2022-09-27T04:33:49;99618.41;;;2.81;96.38
74631;BME280;63138;55.082;38.804;2022-09-27T04:36:21;99617.16;;;2.85;95.85
74631;BME280;63138;55.082;38.804;2022-09-27T04:39:09;99625.78;;;2.89;95.65
74631;BME280;63138;55.082;38.804;2022-09-27T04:41:44;99617.59;;;2.91;95.61
74631;BME280;63138;55.082;38.804;2022-09-27T04:44:10;99622.84;;;2.92;95.53
74631;BME280;63138;55.082;38.804;2022-09-27T04:46:39;99618.88;;;2.96;95.41
74631;BME280;63138;55.082;38.804;2022-09-27T04:49:04;99616.38;;;3.04;95.47
74631;BME280;63138;55.082;38.804;2022-09-27T04:51:33;99615.72;;;3.22;95.73
74631;BME280;63138;55.082;38.804;2022-09-27T04:53:59;99614.16;;;3.29;94.87
74631;BME280;63138;55.082;38.804;2022-09-27T04:56:29;99614.47;;;3.36;94.54
74631;BME280;63138;55.082;38.804;2022-09-27T04:58:55;99609.66;;;3.30;94.35
74631;BME280;63138;55.082;38.804;2022-09-27T05:01:22;99610.78;;;3.27;94.53
74631;BME280;63138;55.082;38.804;2022-09-27T05:04:06;99608.69;;;3.40;94.25
74631;BME280;63138;55.082;38.804;2022-09-27T05:06:34;99607.88;;;3.59;94.51
74631;BME280;63138;55.082;38.804;2022-09-27T05:09:06;99599.38;;;3.74;94.55
74631;BME280;63138;55.082;38.804;2022-09-27T05:11:41;99604.03;;;3.81;94.45
74631;BME280;63138;55.082;38.804;2022-09-27T05:14:19;99606.44;;;3.85;94.07
74631;BME280;63138;55.082;38.804;2022-09-27T05:16:55;99599.66;;;3.90;93.82
74631;BME280;63138;55.082;38.804;2022-09-27T05:19:53;99593.16;;;4.02;93.64
74631;BME280;63138;55.082;38.804;2022-09-27T05:22:45;99594.69;;;4.15;93.15
74631;BME280;63138;55.082;38.804;2022-09-27T05:25:11;99580.81;;;4.19;93.00
74631;BME280;63138;55.082;38.804;2022-09-27T05:27:37;99582.09;;;4.25;92.94
74631;BME280;63138;55.082;38.804;2022-09-27T05:30:04;99584.88;;;4.43;92.78
74631;BME280;63138;55.082;38.804;2022-09-27T05:32:43;99595.56;;;4.63;92.99
74631;BME280;63138;55.082;38.804;2022-09-27T05:35:23;99584.44;;;4.85;91.53
74631;BME280;63138;55.082;38.804;2022-09-27T05:37:53;99594.50;;;5.11;90.54
74631;BME280;63138;55.082;38.804;2022-09-27T05:40:19;99588.38;;;5.36;89.62
74631;BME280;63138;55.082;38.804;2022-09-27T05:42:51;99586.25;;;5.58;88.50
74631;BME280;63138;55.082;38.804;2022-09-27T05:45:18;99587.56;;;5.90;88.25
74631;BME280;63138;55.082;38.804;2022-09-27T05:47:55;99593.22;;;6.23;85.88
74631;BME280;63138;55.082;38.804;2022-09-27T05:50:23;99595.91;;;6.75;83.83
74631;BME280;63138;55.082;38.804;2022-09-27T05:52:49;99592.09;;;6.86;82.30
74631;BME280;63138;55.082;38.804;2022-09-27T05:55:16;99599.78;;;7.07;81.05
74631;BME280;63138;55.082;38.804;2022-09-27T05:57:42;99589.47;;;7.61;78.56
74631;BME280;63138;55.082;38.804;2022-09-27T06:00:09;99592.75;;;7.81;78.56
74631;BME280;63138;55.082;38.804;2022-09-27T06:02:38;99586.47;;;8.14;77.94
74631;BME280;63138;55.082;38.804;2022-09-27T06:05:13;99588.69;;;8.43;77.36
74631;BME280;63138;55.082;38.804;2022-09-27T06:07:39;99586.03;;;8.91;76.15
74631;BME280;63138;55.082;38.804;2022-09-27T06:10:09;99583.72;;;9.19;74.68
74631;BME280;63138;55.082;38.804;2022-09-27T06:12:36;99579.91;;;9.60;71.88
74631;BME280;63138;55.082;38.804;2022-09-27T06:15:08;99567.59;;;9.80;71.41
74631;BME280;63138;55.082;38.804;2022-09-27T06:17:38;99570.63;;;10.61;70.76
74631;BME280;63138;55.082;38.804;2022-09-27T06:20:13;99583.00;;;10.79;68.84
74631;BME280;63138;55.082;38.804;2022-09-27T06:22:39;99585.22;;;11.20;67.35
74631;BME280;63138;55.082;38.804;2022-09-27T06:25:06;99579.91;;;10.67;67.39
74631;BME280;63138;55.082;38.804;2022-09-27T06:27:39;99584.09;;;10.69;68.45
74631;BME280;63138;55.082;38.804;2022-09-27T06:30:09;99595.06;;;10.61;68.63
74631;BME280;63138;55.082;38.804;2022-09-27T06:32:47;99583.63;;;10.66;68.68
74631;BME280;63138;55.082;38.804;2022-09-27T06:35:24;99589.41;;;11.37;67.12
74631;BME280;63138;55.082;38.804;2022-09-27T06:37:52;99587.59;;;11.81;64.97
74631;BME280;63138;55.082;38.804;2022-09-27T06:40:19;99587.97;;;12.71;63.52
74631;BME280;63138;55.082;38.804;2022-09-27T06:43:09;99573.50;;;13.05;61.89
74631;BME280;63138;55.082;38.804;2022-09-27T06:46:02;99579.72;;;14.02;59.54
74631;BME280;63138;55.082;38.804;2022-09-27T06:48:49;99586.91;;;14.63;57.13
74631;BME280;63138;55.082;38.804;2022-09-27T06:51:17;99578.81;;;15.08;56.30
74631;BME280;63138;55.082;38.804;2022-09-27T06:53:43;99589.22;;;15.45;54.05
74631;BME280;63138;55.082;38.804;2022-09-27T06:56:08;99584.03;;;15.75;53.51
74631;BME280;63138;55.082;38.804;2022-09-27T06:58:47;99590.16;;;16.02;53.67
74631;BME280;63138;55.082;38.804;2022-09-27T07:01:40;99584.88;;;16.08;52.88
74631;BME280;63138;55.082;38.804;2022-09-27T07:04:24;99586.38;;;16.35;51.87
74631;BME280;63138;55.082;38.804;2022-09-27T07:07:10;99586.75;;;16.64;51.90
74631;BME280;63138;55.082;38.804;2022-09-27T07:09:43;99583.31;;;17.12;50.51
74631;BME280;63138;55.082;38.804;2022-09-27T07:12:10;99578.63;;;17.68;49.01
74631;BME280;63138;55.082;38.804;2022-09-27T07:14:38;99577.81;;;17.98;48.23
74631;BME280;63138;55.082;38.804;2022-09-27T07:17:05;99580.59;;;18.10;47.83
74631;BME280;63138;55.082;38.804;2022-09-27T07:19:37;99576.91;;;17.37;49.32
74631;BME280;63138;55.082;38.804;2022-09-27T07:22:04;99576.91;;;17.86;48.63
74631;BME280;63138;55.082;38.804;2022-09-27T07:24:29;99574.16;;;18.16;48.66
74631;BME280;63138;55.082;38.804;2022-09-27T07:26:55;99582.59;;;18.03;48.25
74631;BME280;63138;55.082;38.804;2022-09-27T07:29:22;99569.56;;;18.64;47.24
74631;BME280;63138;55.082;38.804;2022-09-27T07:31:50;99566.81;;;18.40;46.71
74631;BME280;63138;55.082;38.804;2022-09-27T07:34:16;99569.41;;;18.35;47.30
74631;BME280;63138;55.082;38.804;2022-09-27T07:36:43;99573.50;;;18.68;47.29
74631;BME280;63138;55.082;38.804;2022-09-27T07:39:09;99580.06;;;18.31;47.42
74631;BME280;63138;55.082;38.804;2022-09-27T07:41:38;99565.47;;;18.43;46.56
74631;BME280;63138;55.082;38.804;2022-09-27T07:44:05;99562.69;;;18.31;47.01
74631;BME280;63138;55.082;38.804;2022-09-27T07:46:34;99575.28;;;18.39;47.45
74631;BME280;63138;55.082;38.804;2022-09-27T07:49:14;99568.94;;;18.26;47.27
74631;BME280;63138;55.082;38.804;2022-09-27T07:51:49;99565.56;;;18.24;47.08
74631;BME280;63138;55.082;38.804;2022-09-27T07:54:34;99564.38;;;18.32;47.34
74631;BME280;63138;55.082;38.804;2022-09-27T07:57:04;99568.53;;;18.11;47.06
74631;BME280;63138;55.082;38.804;2022-09-27T07:59:31;99562.38;;;17.85;47.87
74631;BME280;63138;55.082;38.804;2022-09-27T08:01:57;99568.50;;;17.81;48.00
74631;BME280;63138;55.082;38.804;2022-09-27T08:04:23;99571.59;;;17.72;47.61
74631;BME280;63138;55.082;38.804;2022-09-27T08:06:49;99563.94;;;18.35;46.63
74631;BME280;63138;55.082;38.804;2022-09-27T08:09:15;99564.53;;;17.65;47.54
74631;BME280;63138;55.082;38.804;2022-09-27T08:11:42;99567.00;;;17.17;49.70
74631;BME280;63138;55.082;38.804;2022-09-27T08:14:09;99576.00;;;16.12;51.81
74631;BME280;63138;55.082;38.804;2022-09-27T08:16:37;99566.78;;;15.68;53.28
74631;BME280;63138;55.082;38.804;2022-09-27T08:19:12;99557.59;;;15.94;53.38
74631;BME280;63138;55.082;38.804;2022-09-27T08:21:55;99554.25;;;15.92;53.31
74631;BME280;63138;55.082;38.804;2022-09-27T08:24:23;99566.56;;;15.76;53.26
74631;BME280;63138;55.082;38.804;2022-09-27T08:27:05;99556.78;;;15.48;54.19
74631;BME280;63138;55.082;38.804;2022-09-27T08:29:46;99556.63;;;14.51;56.43
74631;BME280;63138;55.082;38.804;2022-09-27T08:32:15;99537.28;;;13.80;58.84
74631;BME280;63138;55.082;38.804;2022-09-27T08:34:42;99544.25;;;13.95;59.41
74631;BME280;63138;55.082;38.804;2022-09-27T08:37:09;99540.47;;;14.23;58.40
74631;BME280;63138;55.082;38.804;2022-09-27T08:39:36;99551.13;;;14.85;56.67
74631;BME280;63138;55.082;38.804;2022-09-27T08:47:28;99534.34;;;13.74;60.03
74631;BME280;63138;55.082;38.804;2022-09-27T08:50:02;99543.56;;;13.73;60.84
74631;BME280;63138;55.082;38.804;2022-09-27T08:52:32;99530.81;;;13.94;59.43
74631;BME280;63138;55.082;38.804;2022-09-27T08:57:56;99530.31;;;12.60;63.36
74631;BME280;63138;55.082;38.804;2022-09-27T09:00:28;99535.78;;;12.67;63.46
74631;BME280;63138;55.082;38.804;2022-09-27T09:02:56;99538.81;;;12.51;63.67
74631;BME280;63138;55.082;38.804;2022-09-27T09:05:34;99545.81;;;12.32;64.57
74631;BME280;63138;55.082;38.804;2022-09-27T09:08:33;99545.13;;;12.23;65.15
74631;BME280;63138;55.082;38.804;2022-09-27T09:11:08;99540.00;;;12.13;65.84
74631;BME280;63138;55.082;38.804;2022-09-27T09:28:43;99553.09;;;11.81;62.83
74631;BME280;63138;55.082;38.804;2022-09-27T09:34:18;99550.47;;;11.52;62.23
74631;BME280;63138;55.082;38.804;2022-09-27T09:36:51;99552.72;;;11.48;62.90
74631;BME280;63138;55.082;38.804;2022-09-27T09:39:34;99550.00;;;11.48;63.07
74631;BME280;63138;55.082;38.804;2022-09-27T09:42:27;99547.88;;;11.43;63.74
74631;BME280;63138;55.082;38.804;2022-09-27T09:47:56;99542.03;;;11.46;63.89
74631;BME280;63138;55.082;38.804;2022-09-27T09:50:33;99542.44;;;11.43;64.14
74631;BME280;63138;55.082;38.804;2022-09-27T09:53:15;99553.25;;;11.37;62.32
74631;BME280;63138;55.082;38.804;2022-09-27T09:55:47;99555.31;;;11.35;63.02
74631;BME280;63138;55.082;38.804;2022-09-27T09:58:23;99546.09;;;11.36;62.83
74631;BME280;63138;55.082;38.804;2022-09-27T10:04:01;99540.13;;;11.62;63.29
74631;BME280;63138;55.082;38.804;2022-09-27T10:06:27;99535.97;;;11.66;62.82
74631;BME280;63138;55.082;38.804;2022-09-27T10:08:58;99537.94;;;11.72;62.06
74631;BME280;63138;55.082;38.804;2022-09-27T10:11:43;99535.63;;;11.91;62.02
74631;BME280;63138;55.082;38.804;2022-09-27T10:14:21;99514.38;;;11.79;62.66
74631;BME280;63138;55.082;38.804;2022-09-27T10:17:02;99518.91;;;12.50;60.96
74631;BME280;63138;55.082;38.804;2022-09-27T10:19:32;99526.94;;;12.30;61.38
74631;BME280;63138;55.082;38.804;2022-09-27T10:22:09;99520.31;;;12.39;61.18
74631;BME280;63138;55.082;38.804;2022-09-27T10:24:56;99521.31;;;12.67;60.65
74631;BME280;63138;55.082;38.804;2022-09-27T10:27:41;99515.00;;;12.59;61.17
74631;BME280;63138;55.082;38.804;2022-09-27T10:30:30;99501.53;;;13.41;59.01
74631;BME280;63138;55.082;38.804;2022-09-27T10:33:03;99497.59;;;13.77;58.33
74631;BME280;63138;55.082;38.804;2022-09-27T10:35:46;99496.50;;;13.38;57.24
74631;BME280;63138;55.082;38.804;2022-09-27T10:38:30;99506.38;;;13.59;57.69
74631;BME280;63138;55.082;38.804;2022-09-27T10:41:24;99497.75;;;13.35;58.15
74631;BME280;63138;55.082;38.804;2022-09-27T10:46:47;99503.41;;;13.41;55.02
74631;BME280;63138;55.082;38.804;2022-09-27T10:49:36;99501.09;;;13.31;55.41
74631;BME280;63138;55.082;38.804;2022-09-27T10:52:19;99504.72;;;12.96;56.00
74631;BME280;63138;55.082;38.804;2022-09-27T10:54:58;99477.94;;;13.13;55.71
74631;BME280;63138;55.082;38.804;2022-09-27T10:57:27;99494.66;;;12.97;56.49
74631;BME280;63138;55.082;38.804;2022-09-27T10:59:59;99479.44;;;12.68;56.25
74631;BME280;63138;55.082;38.804;2022-09-27T11:02:29;99495.84;;;12.46;55.81
74631;BME280;63138;55.082;38.804;2022-09-27T11:05:15;99499.03;;;12.21;56.69
74631;BME280;63138;55.082;38.804;2022-09-27T11:07:59;99480.06;;;12.35;56.66
74631;BME280;63138;55.082;38.804;2022-09-27T11:13:38;99485.53;;;12.07;57.22
74631;BME280;63138;55.082;38.804;2022-09-27T11:21:25;99490.75;;;11.86;57.56
74631;BME280;63138;55.082;38.804;2022-09-27T11:51:45;99483.78;;;11.34;62.27
74631;BME280;63138;55.082;38.804;2022-09-27T11:55:02;99480.59;;;11.31;61.91
74631;BME280;63138;55.082;38.804;2022-09-27T11:57:38;99477.41;;;11.27;63.42
74631;BME280;63138;55.082;38.804;2022-09-27T12:00:24;99467.09;;;11.37;62.83
74631;BME280;63138;55.082;38.804;2022-09-27T12:08:32;99425.84;;;11.34;63.75
74631;BME280;63138;55.082;38.804;2022-09-27T12:11:15;99444.81;;;11.27;65.34
74631;BME280;63138;55.082;38.804;2022-09-27T12:13:50;99430.53;;;11.18;65.68
74631;BME280;63138;55.082;38.804;2022-09-27T12:16:19;99414.41;;;10.95;66.78
74631;BME280;63138;55.082;38.804;2022-09-27T12:18:47;99432.34;;;10.96;66.28
74631;BME280;63138;55.082;38.804;2022-09-27T12:21:33;99424.84;;;10.98;64.93
74631;BME280;63138;55.082;38.804;2022-09-27T12:24:02;99437.16;;;11.16;64.96
74631;BME280;63138;55.082;38.804;2022-09-27T12:26:41;99430.38;;;11.05;66.01
74631;BME280;63138;55.082;38.804;2022-09-27T12:29:22;99443.38;;;11.09;65.88
74631;BME280;63138;55.082;38.804;2022-09-27T12:34:41;99441.25;;;11.05;65.94
74631;BME280;63138;55.082;38.804;2022-09-27T12:37:26;99432.25;;;11.04;66.38
74631;BME280;63138;55.082;38.804;2022-09-27T12:42:39;99418.31;;;10.93;65.75
74631;BME280;63138;55.082;38.804;2022-09-27T12:45:15;99412.88;;;10.93;65.61
74631;BME280;63138;55.082;38.804;2022-09-27T12:48:07;99421.56;;;11.03;65.51
74631;BME280;63138;55.082;38.804;2022-09-27T12:50:45;99441.16;;;10.98;65.78
74631;BME280;63138;55.082;38.804;2022-09-27T13:07:23;99443.53;;;10.86;66.18
74631;BME280;63138;55.082;38.804;2022-09-27T13:10:20;99440.19;;;10.69;66.51
74631;BME280;63138;55.082;38.804;2022-09-27T13:12:52;99431.56;;;10.66;67.16
74631;BME280;63138;55.082;38.804;2022-09-27T13:15:25;99438.16;;;10.57;67.11
74631;BME280;63138;55.082;38.804;2022-09-27T13:17:55;99435.19;;;10.51;66.93
74631;BME280;63138;55.082;38.804;2022-09-27T13:34:47;99421.75;;;10.20;68.11
74631;BME280;63138;55.082;38.804;2022-09-27T13:40:34;99414.56;;;10.12;69.06
74631;BME280;63138;55.082;38.804;2022-09-27T13:46:05;99421.75;;;10.05;70.36
74631;BME280;63138;55.082;38.804;2022-09-27T13:48:48;99422.03;;;9.95;70.67
74631;BME280;63138;55.082;38.804;2022-09-27T13:54:04;99410.44;;;9.87;71.56
74631;BME280;63138;55.082;38.804;2022-09-27T13:59:16;99417.88;;;9.70;72.72
74631;BME280;63138;55.082;38.804;2022-09-27T14:01:49;99407.59;;;9.65;73.89
74631;BME280;63138;55.082;38.804;2022-09-27T14:04:29;99410.38;;;9.57;74.53
74631;BME280;63138;55.082;38.804;2022-09-27T14:06:58;99414.31;;;9.54;74.92
74631;BME280;63138;55.082;38.804;2022-09-27T14:09:30;99420.63;;;9.47;75.43
74631;BME280;63138;55.082;38.804;2022-09-27T14:12:18;99414.06;;;9.41;76.33
74631;BME280;63138;55.082;38.804;2022-09-27T14:14:45;99417.88;;;9.32;76.66
74631;BME280;63138;55.082;38.804;2022-09-27T14:17:14;99421.56;;;9.31;77.23
74631;BME280;63138;55.082;38.804;2022-09-27T14:19:42;99423.31;;;9.24;77.28
74631;BME280;63138;55.082;38.804;2022-09-27T14:22:20;99414.94;;;9.18;77.72
74631;BME280;63138;55.082;38.804;2022-09-27T14:25:15;99416.00;;;9.09;78.34
74631;BME280;63138;55.082;38.804;2022-09-27T14:27:43;99406.53;;;9.05;78.94
74631;BME280;63138;55.082;38.804;2022-09-27T14:30:31;99399.16;;;8.99;79.31
74631;BME280;63138;55.082;38.804;2022-09-27T14:33:30;99397.53;;;8.90;78.53
74631;BME280;63138;55.082;38.804;2022-09-27T14:36:05;99394.16;;;8.88;79.34
74631;BME280;63138;55.082;38.804;2022-09-27T14:38:53;99392.50;;;8.78;79.94
74631;BME280;63138;55.082;38.804;2022-09-27T14:41:35;99392.31;;;8.80;80.32
74631;BME280;63138;55.082;38.804;2022-09-27T14:44:01;99388.78;;;8.79;80.43
74631;BME280;63138;55.082;38.804;2022-09-27T14:46:30;99383.06;;;8.74;80.72
74631;BME280;63138;55.082;38.804;2022-09-27T14:48:56;99389.28;;;8.75;80.53
74631;BME280;63138;55.082;38.804;2022-09-27T14:51:30;99388.16;;;8.69;81.24
74631;BME280;63138;55.082;38.804;2022-09-27T14:53:59;99400.69;;;8.70;81.19
74631;BME280;63138;55.082;38.804;2022-09-27T14:56:33;99398.16;;;8.69;81.11
74631;BME280;63138;55.082;38.804;2022-09-27T14:59:08;99386.66;;;8.67;81.49
74631;BME280;63138;55.082;38.804;2022-09-27T15:01:35;99379.38;;;8.67;81.67
74631;BME280;63138;55.082;38.804;2022-09-27T15:04:12;99370.94;;;8.62;82.25
74631;BME280;63138;55.082;38.804;2022-09-27T15:06:39;99380.28;;;8.59;81.73
74631;BME280;63138;55.082;38.804;2022-09-27T15:09:06;99372.31;;;8.58;81.56
74631;BME280;63138;55.082;38.804;2022-09-27T15:11:34;99373.81;;;8.60;81.23
74631;BME280;63138;55.082;38.804;2022-09-27T15:14:01;99363.72;;;8.54;81.47
74631;BME280;63138;55.082;38.804;2022-09-27T15:16:29;99367.25;;;8.55;81.63
74631;BME280;63138;55.082;38.804;2022-09-27T15:21:32;99363.88;;;8.53;81.88
74631;BME280;63138;55.082;38.804;2022-09-27T15:23:59;99357.63;;;8.52;81.59
74631;BME280;63138;55.082;38.804;2022-09-27T15:26:45;99363.22;;;8.51;81.66
74631;BME280;63138;55.082;38.804;2022-09-27T15:29:19;99338.91;;;8.42;81.39
74631;BME280;63138;55.082;38.804;2022-09-27T15:32:06;99348.00;;;8.50;81.43
74631;BME280;63138;55.082;38.804;2022-09-27T15:34:33;99341.94;;;8.48;81.74
74631;BME280;63138;55.082;38.804;2022-09-27T15:37:01;99349.38;;;8.46;81.99
74631;BME280;63138;55.082;38.804;2022-09-27T15:39:35;99345.00;;;8.45;82.24
74631;BME280;63138;55.082;38.804;2022-09-27T15:42:09;99343.13;;;8.45;82.25
74631;BME280;63138;55.082;38.804;2022-09-27T15:44:46;99338.38;;;8.39;82.09
74631;BME280;63138;55.082;38.804;2022-09-27T15:49:57;99335.69;;;8.39;81.75
74631;BME280;63138;55.082;38.804;2022-09-27T15:52:42;99314.59;;;8.34;82.41
74631;BME280;63138;55.082;38.804;2022-09-27T15:55:17;99327.06;;;8.35;82.13
74631;BME280;63138;55.082;38.804;2022-09-27T15:57:50;99322.22;;;8.31;82.19
74631;BME280;63138;55.082;38.804;2022-09-27T16:00:18;99324.09;;;8.30;82.43
74631;BME280;63138;55.082;38.804;2022-09-27T16:02:45;99315.97;;;8.30;82.51
74631;BME280;63138;55.082;38.804;2022-09-27T16:05:12;99310.91;;;8.27;82.61
74631;BME280;63138;55.082;38.804;2022-09-27T16:07:38;99314.63;;;8.26;82.98
74631;BME280;63138;55.082;38.804;2022-09-27T16:10:16;99306.19;;;8.21;83.10
74631;BME280;63138;55.082;38.804;2022-09-27T16:12:42;99302.16;;;8.17;83.79
74631;BME280;63138;55.082;38.804;2022-09-27T16:15:10;99301.50;;;8.15;83.70
74631;BME280;63138;55.082;38.804;2022-09-27T16:17:36;99291.03;;;8.12;84.14
74631;BME280;63138;55.082;38.804;2022-09-27T16:20:04;99294.41;;;8.14;84.41
74631;BME280;63138;55.082;38.804;2022-09-27T16:22:31;99291.88;;;8.12;84.43